sensor_id;sensor_type;location;lat;lon;timestamp;temperature;humidity
59847;DHT22;45728;48.788;2.302;2022-09-27T00:00:59;11.60;99.90
59847;DHT22;45728;48.788;2.302;2022-09-27T00:03:25;11.60;99.90
59847;DHT22;45728;48.788;2.302;2022-09-27T00:06:01;11.60;99.90
59847;DHT22;45728;48.788;2.302;2022-09-27T00:08:30;11.60;99.90
59847;DHT22;45728;48.788;2.302;2022-09-27T00:11:03;11.70;99.90
59847;DHT22;45728;48.788;2.302;2022-09-27T00:13:29;11.70;99.90
59847;DHT22;45728;48.788;2.302;2022-09-27T00:15:56;11.60;99.90
59847;DHT22;45728;48.788;2.302;2022-09-27T00:18:22;11.60;99.90
59847;DHT22;45728;48.788;2.302;2022-09-27T00:20:48;11.60;99.90
59847;DHT22;45728;48.788;2.302;2022-09-27T00:23:14;11.60;99.90
59847;DHT22;45728;48.788;2.302;2022-09-27T00:25:40;11.60;99.90
59847;DHT22;45728;48.788;2.302;2022-09-27T00:28:07;11.60;99.90
59847;DHT22;45728;48.788;2.302;2022-09-27T00:30:33;11.60;99.90
59847;DHT22;45728;48.788;2.302;2022-09-27T00:32:59;11.60;99.90
59847;DHT22;45728;48.788;2.302;2022-09-27T00:35:25;11.50;99.90
59847;DHT22;45728;48.788;2.302;2022-09-27T00:37:50;11.50;99.90
59847;DHT22;45728;48.788;2.302;2022-09-27T00:40:16;11.60;99.90
59847;DHT22;45728;48.788;2.302;2022-09-27T00:42:42;11.60;99.90
59847;DHT22;45728;48.788;2.302;2022-09-27T00:45:11;11.50;99.90
59847;DHT22;45728;48.788;2.302;2022-09-27T00:47:39;11.60;99.90
59847;DHT22;45728;48.788;2.302;2022-09-27T00:50:27;11.50;99.90
59847;DHT22;45728;48.788;2.302;2022-09-27T00:55:28;11.50;99.90
59847;DHT22;45728;48.788;2.302;2022-09-27T00:57:55;11.50;99.90
59847;DHT22;45728;48.788;2.302;2022-09-27T01:00:21;11.40;99.90
59847;DHT22;45728;48.788;2.302;2022-09-27T01:02:51;11.40;99.90
59847;DHT22;45728;48.788;2.302;2022-09-27T01:05:18;11.40;99.90
59847;DHT22;45728;48.788;2.302;2022-09-27T01:07:45;11.40;99.90
59847;DHT22;45728;48.788;2.302;2022-09-27T01:10:11;11.50;99.90
59847;DHT22;45728;48.788;2.302;2022-09-27T01:17:42;11.50;99.90
59847;DHT22;45728;48.788;2.302;2022-09-27T01:20:20;11.50;99.90
59847;DHT22;45728;48.788;2.302;2022-09-27T01:25:42;11.50;99.90
59847;DHT22;45728;48.788;2.302;2022-09-27T01:30:39;11.50;99.90
59847;DHT22;45728;48.788;2.302;2022-09-27T01:33:09;11.40;99.90
59847;DHT22;45728;48.788;2.302;2022-09-27T01:43:08;11.40;99.90
59847;DHT22;45728;48.788;2.302;2022-09-27T01:45:37;11.40;99.90
59847;DHT22;45728;48.788;2.302;2022-09-27T01:48:06;11.40;99.90
59847;DHT22;45728;48.788;2.302;2022-09-27T01:50:38;11.40;99.90
59847;DHT22;45728;48.788;2.302;2022-09-27T01:53:08;11.40;99.90
59847;DHT22;45728;48.788;2.302;2022-09-27T01:55:37;11.30;99.90
59847;DHT22;45728;48.788;2.302;2022-09-27T01:58:05;11.30;99.90
59847;DHT22;45728;48.788;2.302;2022-09-27T02:00:32;11.40;99.90
59847;DHT22;45728;48.788;2.302;2022-09-27T02:03:00;11.30;99.90
59847;DHT22;45728;48.788;2.302;2022-09-27T02:05:51;11.30;99.90
59847;DHT22;45728;48.788;2.302;2022-09-27T02:08:18;11.20;99.90
59847;DHT22;45728;48.788;2.302;2022-09-27T02:10:45;11.30;99.90
59847;DHT22;45728;48.788;2.302;2022-09-27T02:13:15;11.20;99.90
59847;DHT22;45728;48.788;2.302;2022-09-27T02:15:47;11.20;99.90
59847;DHT22;45728;48.788;2.302;2022-09-27T02:18:17;11.20;99.90
59847;DHT22;45728;48.788;2.302;2022-09-27T02:20:45;11.20;99.90
59847;DHT22;45728;48.788;2.302;2022-09-27T02:23:49;11.20;99.90
59847;DHT22;45728;48.788;2.302;2022-09-27T02:26:14;11.10;99.90
59847;DHT22;45728;48.788;2.302;2022-09-27T02:31:16;11.20;99.90
59847;DHT22;45728;48.788;2.302;2022-09-27T02:36:08;11.20;99.90
59847;DHT22;45728;48.788;2.302;2022-09-27T02:38:34;11.20;99.90
59847;DHT22;45728;48.788;2.302;2022-09-27T02:41:00;11.20;99.90
59847;DHT22;45728;48.788;2.302;2022-09-27T02:43:27;11.10;99.90
59847;DHT22;45728;48.788;2.302;2022-09-27T02:51:17;11.10;99.90
59847;DHT22;45728;48.788;2.302;2022-09-27T02:59:00;11.00;99.90
59847;DHT22;45728;48.788;2.302;2022-09-27T03:04:19;10.90;99.90
59847;DHT22;45728;48.788;2.302;2022-09-27T03:06:47;11.00;99.90
59847;DHT22;45728;48.788;2.302;2022-09-27T03:09:17;11.00;99.90
59847;DHT22;45728;48.788;2.302;2022-09-27T03:11:44;11.00;99.90
59847;DHT22;45728;48.788;2.302;2022-09-27T03:14:09;10.90;99.90
59847;DHT22;45728;48.788;2.302;2022-09-27T03:16:35;10.90;99.90
59847;DHT22;45728;48.788;2.302;2022-09-27T03:19:01;10.90;99.90
59847;DHT22;45728;48.788;2.302;2022-09-27T03:21:27;10.90;99.90
59847;DHT22;45728;48.788;2.302;2022-09-27T03:23:53;10.80;99.90
59847;DHT22;45728;48.788;2.302;2022-09-27T03:26:19;10.90;99.90
59847;DHT22;45728;48.788;2.302;2022-09-27T03:28:45;10.90;99.90
59847;DHT22;45728;48.788;2.302;2022-09-27T03:31:11;10.80;99.90
59847;DHT22;45728;48.788;2.302;2022-09-27T03:33:37;10.80;99.90
59847;DHT22;45728;48.788;2.302;2022-09-27T03:36:03;10.80;99.90
59847;DHT22;45728;48.788;2.302;2022-09-27T03:38:29;10.80;99.90
59847;DHT22;45728;48.788;2.302;2022-09-27T03:40:55;10.80;99.90
59847;DHT22;45728;48.788;2.302;2022-09-27T03:43:21;10.80;99.90
59847;DHT22;45728;48.788;2.302;2022-09-27T03:45:47;10.70;99.90
59847;DHT22;45728;48.788;2.302;2022-09-27T03:48:13;10.80;99.90
59847;DHT22;45728;48.788;2.302;2022-09-27T03:50:39;10.80;99.90
59847;DHT22;45728;48.788;2.302;2022-09-27T03:53:05;10.80;99.90
59847;DHT22;45728;48.788;2.302;2022-09-27T03:55:31;10.80;99.90
59847;DHT22;45728;48.788;2.302;2022-09-27T03:57:57;10.80;99.90
59847;DHT22;45728;48.788;2.302;2022-09-27T04:00:22;10.80;99.90
59847;DHT22;45728;48.788;2.302;2022-09-27T04:02:49;10.80;99.90
59847;DHT22;45728;48.788;2.302;2022-09-27T04:05:15;10.80;99.90
59847;DHT22;45728;48.788;2.302;2022-09-27T04:07:47;10.80;99.90
59847;DHT22;45728;48.788;2.302;2022-09-27T04:10:14;10.70;99.90
59847;DHT22;45728;48.788;2.302;2022-09-27T04:12:40;10.80;99.90
59847;DHT22;45728;48.788;2.302;2022-09-27T04:15:06;10.80;99.90
59847;DHT22;45728;48.788;2.302;2022-09-27T04:17:33;10.80;99.90
59847;DHT22;45728;48.788;2.302;2022-09-27T04:19:59;10.80;99.90
59847;DHT22;45728;48.788;2.302;2022-09-27T04:22:27;10.80;99.90
59847;DHT22;45728;48.788;2.302;2022-09-27T04:24:53;10.90;99.90
59847;DHT22;45728;48.788;2.302;2022-09-27T04:27:18;10.90;99.90
59847;DHT22;45728;48.788;2.302;2022-09-27T04:29:44;10.90;99.90
59847;DHT22;45728;48.788;2.302;2022-09-27T04:32:11;11.00;99.90
59847;DHT22;45728;48.788;2.302;2022-09-27T04:34:37;10.90;99.90
59847;DHT22;45728;48.788;2.302;2022-09-27T04:37:21;10.90;99.90
59847;DHT22;45728;48.788;2.302;2022-09-27T04:39:47;10.90;99.90
59847;DHT22;45728;48.788;2.302;2022-09-27T04:42:14;10.90;99.90
59847;DHT22;45728;48.788;2.302;2022-09-27T04:44:40;11.00;99.90
59847;DHT22;45728;48.788;2.302;2022-09-27T04:47:06;11.00;99.90
59847;DHT22;45728;48.788;2.302;2022-09-27T04:49:32;10.90;99.90
59847;DHT22;45728;48.788;2.302;2022-09-27T04:51:58;10.90;99.90
59847;DHT22;45728;48.788;2.302;2022-09-27T04:54:23;11.00;99.90
59847;DHT22;45728;48.788;2.302;2022-09-27T04:56:49;11.00;99.90
59847;DHT22;45728;48.788;2.302;2022-09-27T04:59:15;11.00;99.90
59847;DHT22;45728;48.788;2.302;2022-09-27T05:01:41;11.00;99.90
59847;DHT22;45728;48.788;2.302;2022-09-27T05:04:07;11.00;99.90
59847;DHT22;45728;48.788;2.302;2022-09-27T05:06:33;11.00;99.90
59847;DHT22;45728;48.788;2.302;2022-09-27T05:08:59;11.00;99.90
59847;DHT22;45728;48.788;2.302;2022-09-27T05:11:25;11.00;99.90
59847;DHT22;45728;48.788;2.302;2022-09-27T05:13:51;11.00;99.90
59847;DHT22;45728;48.788;2.302;2022-09-27T05:16:17;11.00;99.90
59847;DHT22;45728;48.788;2.302;2022-09-27T05:18:44;11.10;99.90
59847;DHT22;45728;48.788;2.302;2022-09-27T05:21:10;11.10;99.90
59847;DHT22;45728;48.788;2.302;2022-09-27T05:23:37;11.10;99.90
59847;DHT22;45728;48.788;2.302;2022-09-27T05:26:03;11.10;99.90
59847;DHT22;45728;48.788;2.302;2022-09-27T05:28:29;11.10;99.90
59847;DHT22;45728;48.788;2.302;2022-09-27T05:30:55;11.20;99.90
59847;DHT22;45728;48.788;2.302;2022-09-27T05:33:21;11.20;99.90
59847;DHT22;45728;48.788;2.302;2022-09-27T05:35:54;11.20;99.90
59847;DHT22;45728;48.788;2.302;2022-09-27T05:38:20;11.20;99.90
59847;DHT22;45728;48.788;2.302;2022-09-27T05:40:46;11.20;99.90
59847;DHT22;45728;48.788;2.302;2022-09-27T05:43:15;11.10;99.90
59847;DHT22;45728;48.788;2.302;2022-09-27T05:45:41;11.10;99.90
59847;DHT22;45728;48.788;2.302;2022-09-27T05:48:08;11.20;99.90
59847;DHT22;45728;48.788;2.302;2022-09-27T05:50:34;11.20;99.90
59847;DHT22;45728;48.788;2.302;2022-09-27T05:53:00;11.20;99.90
59847;DHT22;45728;48.788;2.302;2022-09-27T05:55:26;11.30;99.90
59847;DHT22;45728;48.788;2.302;2022-09-27T05:57:59;11.30;99.90
59847;DHT22;45728;48.788;2.302;2022-09-27T06:00:25;11.30;99.90
59847;DHT22;45728;48.788;2.302;2022-09-27T06:02:52;11.40;99.90
59847;DHT22;45728;48.788;2.302;2022-09-27T06:05:18;11.40;99.90
59847;DHT22;45728;48.788;2.302;2022-09-27T06:07:44;11.40;99.90
59847;DHT22;45728;48.788;2.302;2022-09-27T06:10:10;11.40;99.90
59847;DHT22;45728;48.788;2.302;2022-09-27T06:12:36;11.40;99.90
59847;DHT22;45728;48.788;2.302;2022-09-27T06:15:03;11.40;99.90
59847;DHT22;45728;48.788;2.302;2022-09-27T06:17:29;11.40;99.90
59847;DHT22;45728;48.788;2.302;2022-09-27T06:19:54;11.40;99.90
59847;DHT22;45728;48.788;2.302;2022-09-27T06:22:22;11.50;99.90
59847;DHT22;45728;48.788;2.302;2022-09-27T06:24:48;11.40;99.90
59847;DHT22;45728;48.788;2.302;2022-09-27T06:27:13;11.40;99.90
59847;DHT22;45728;48.788;2.302;2022-09-27T06:29:39;11.40;99.90
59847;DHT22;45728;48.788;2.302;2022-09-27T06:32:05;11.50;99.90
59847;DHT22;45728;48.788;2.302;2022-09-27T06:34:31;11.50;99.90
59847;DHT22;45728;48.788;2.302;2022-09-27T06:36:57;11.50;99.90
59847;DHT22;45728;48.788;2.302;2022-09-27T06:39:23;11.50;99.90
59847;DHT22;45728;48.788;2.302;2022-09-27T06:41:51;11.50;99.90
59847;DHT22;45728;48.788;2.302;2022-09-27T06:44:19;11.60;99.90
59847;DHT22;45728;48.788;2.302;2022-09-27T06:46:44;11.60;99.90
59847;DHT22;45728;48.788;2.302;2022-09-27T06:49:10;11.60;99.90
59847;DHT22;45728;48.788;2.302;2022-09-27T06:51:36;11.70;99.90
59847;DHT22;45728;48.788;2.302;2022-09-27T06:54:02;11.70;99.90
59847;DHT22;45728;48.788;2.302;2022-09-27T06:56:28;11.60;99.90
59847;DHT22;45728;48.788;2.302;2022-09-27T06:58:54;11.60;99.90
59847;DHT22;45728;48.788;2.302;2022-09-27T07:01:38;11.70;99.90
59847;DHT22;45728;48.788;2.302;2022-09-27T07:04:04;11.70;99.90
59847;DHT22;45728;48.788;2.302;2022-09-27T07:06:32;11.70;99.90
59847;DHT22;45728;48.788;2.302;2022-09-27T07:09:00;11.70;99.90
59847;DHT22;45728;48.788;2.302;2022-09-27T07:11:26;11.70;99.90
59847;DHT22;45728;48.788;2.302;2022-09-27T07:13:52;11.70;99.90
59847;DHT22;45728;48.788;2.302;2022-09-27T07:16:18;11.80;99.90
59847;DHT22;45728;48.788;2.302;2022-09-27T07:18:43;11.80;99.90
59847;DHT22;45728;48.788;2.302;2022-09-27T07:21:09;11.80;99.90
59847;DHT22;45728;48.788;2.302;2022-09-27T07:23:37;11.90;99.90
59847;DHT22;45728;48.788;2.302;2022-09-27T07:26:03;11.80;99.90
59847;DHT22;45728;48.788;2.302;2022-09-27T07:28:29;11.80;99.90
59847;DHT22;45728;48.788;2.302;2022-09-27T07:30:55;11.90;99.90
59847;DHT22;45728;48.788;2.302;2022-09-27T07:33:21;11.90;99.90
59847;DHT22;45728;48.788;2.302;2022-09-27T07:35:47;12.00;99.90
59847;DHT22;45728;48.788;2.302;2022-09-27T07:38:13;12.00;99.90
59847;DHT22;45728;48.788;2.302;2022-09-27T07:40:39;12.10;99.90
59847;DHT22;45728;48.788;2.302;2022-09-27T07:43:06;12.10;99.90
59847;DHT22;45728;48.788;2.302;2022-09-27T07:45:34;12.10;99.90
59847;DHT22;45728;48.788;2.302;2022-09-27T07:48:02;12.20;99.90
59847;DHT22;45728;48.788;2.302;2022-09-27T07:50:28;12.20;99.90
59847;DHT22;45728;48.788;2.302;2022-09-27T07:52:54;12.20;99.90
59847;DHT22;45728;48.788;2.302;2022-09-27T07:55:21;12.30;99.90
59847;DHT22;45728;48.788;2.302;2022-09-27T07:57:48;12.40;99.90
59847;DHT22;45728;48.788;2.302;2022-09-27T08:00:16;12.50;99.90
59847;DHT22;45728;48.788;2.302;2022-09-27T08:02:42;12.50;99.90
59847;DHT22;45728;48.788;2.302;2022-09-27T08:05:09;12.50;99.90
59847;DHT22;45728;48.788;2.302;2022-09-27T08:07:35;12.60;99.90
59847;DHT22;45728;48.788;2.302;2022-09-27T08:10:00;12.70;99.90
59847;DHT22;45728;48.788;2.302;2022-09-27T08:12:26;12.70;99.90
59847;DHT22;45728;48.788;2.302;2022-09-27T08:14:52;12.80;99.90
59847;DHT22;45728;48.788;2.302;2022-09-27T08:17:19;12.90;99.90
59847;DHT22;45728;48.788;2.302;2022-09-27T08:19:45;12.70;99.90
59847;DHT22;45728;48.788;2.302;2022-09-27T08:22:13;12.70;99.90
59847;DHT22;45728;48.788;2.302;2022-09-27T08:24:39;12.80;99.90
59847;DHT22;45728;48.788;2.302;2022-09-27T08:27:05;12.80;99.90
59847;DHT22;45728;48.788;2.302;2022-09-27T08:29:33;12.80;99.90
59847;DHT22;45728;48.788;2.302;2022-09-27T08:31:59;12.80;99.90
59847;DHT22;45728;48.788;2.302;2022-09-27T08:34:25;12.90;99.90
59847;DHT22;45728;48.788;2.302;2022-09-27T08:36:52;12.90;99.90
59847;DHT22;45728;48.788;2.302;2022-09-27T08:39:20;12.80;99.90
59847;DHT22;45728;48.788;2.302;2022-09-27T08:44:43;12.90;99.90
59847;DHT22;45728;48.788;2.302;2022-09-27T08:47:17;13.00;99.90
59847;DHT22;45728;48.788;2.302;2022-09-27T08:50:01;13.00;99.90
59847;DHT22;45728;48.788;2.302;2022-09-27T08:52:29;12.90;99.90
59847;DHT22;45728;48.788;2.302;2022-09-27T08:54:57;12.90;99.90
59847;DHT22;45728;48.788;2.302;2022-09-27T08:57:26;12.90;99.90
59847;DHT22;45728;48.788;2.302;2022-09-27T08:59:54;13.00;99.90
59847;DHT22;45728;48.788;2.302;2022-09-27T09:02:24;13.20;99.90
59847;DHT22;45728;48.788;2.302;2022-09-27T09:15:43;13.40;99.90
59847;DHT22;45728;48.788;2.302;2022-09-27T09:18:33;13.30;99.90
59847;DHT22;45728;48.788;2.302;2022-09-27T09:23:49;13.30;99.90
59847;DHT22;45728;48.788;2.302;2022-09-27T09:34:05;13.30;99.90
59847;DHT22;45728;48.788;2.302;2022-09-27T09:36:36;13.30;99.90
59847;DHT22;45728;48.788;2.302;2022-09-27T09:39:05;13.40;99.90
59847;DHT22;45728;48.788;2.302;2022-09-27T09:46:38;13.40;99.90
59847;DHT22;45728;48.788;2.302;2022-09-27T09:51:41;13.30;99.90
59847;DHT22;45728;48.788;2.302;2022-09-27T09:56:48;13.80;99.90
59847;DHT22;45728;48.788;2.302;2022-09-27T09:59:16;14.20;99.90
59847;DHT22;45728;48.788;2.302;2022-09-27T10:01:43;14.70;99.90
59847;DHT22;45728;48.788;2.302;2022-09-27T10:04:11;14.80;99.90
59847;DHT22;45728;48.788;2.302;2022-09-27T10:06:40;14.80;99.90
59847;DHT22;45728;48.788;2.302;2022-09-27T10:09:07;14.70;99.90
59847;DHT22;45728;48.788;2.302;2022-09-27T10:11:36;14.50;99.90
59847;DHT22;45728;48.788;2.302;2022-09-27T10:14:04;14.40;99.90
59847;DHT22;45728;48.788;2.302;2022-09-27T10:16:34;14.40;99.90
59847;DHT22;45728;48.788;2.302;2022-09-27T10:19:01;14.40;99.90
59847;DHT22;45728;48.788;2.302;2022-09-27T10:21:28;14.20;99.90
59847;DHT22;45728;48.788;2.302;2022-09-27T10:26:28;14.20;99.90
59847;DHT22;45728;48.788;2.302;2022-09-27T10:28:54;14.30;99.90
59847;DHT22;45728;48.788;2.302;2022-09-27T10:31:19;14.40;99.90
59847;DHT22;45728;48.788;2.302;2022-09-27T10:33:59;14.10;99.90
59847;DHT22;45728;48.788;2.302;2022-09-27T10:36:35;13.70;99.90
59847;DHT22;45728;48.788;2.302;2022-09-27T10:39:02;13.50;99.90
59847;DHT22;45728;48.788;2.302;2022-09-27T10:46:48;12.90;99.90
59847;DHT22;45728;48.788;2.302;2022-09-27T10:49:23;12.80;99.90
59847;DHT22;45728;48.788;2.302;2022-09-27T10:51:56;12.80;99.90
59847;DHT22;45728;48.788;2.302;2022-09-27T10:54:28;12.80;99.90
59847;DHT22;45728;48.788;2.302;2022-09-27T10:56:55;12.80;99.90
59847;DHT22;45728;48.788;2.302;2022-09-27T10:59:21;12.90;99.90
59847;DHT22;45728;48.788;2.302;2022-09-27T11:01:48;12.70;99.90
59847;DHT22;45728;48.788;2.302;2022-09-27T11:04:27;12.70;99.90
59847;DHT22;45728;48.788;2.302;2022-09-27T11:07:07;12.60;99.90
59847;DHT22;45728;48.788;2.302;2022-09-27T11:09:42;12.60;99.90
59847;DHT22;45728;48.788;2.302;2022-09-27T11:12:09;12.50;99.90
59847;DHT22;45728;48.788;2.302;2022-09-27T11:14:37;12.60;99.90
59847;DHT22;45728;48.788;2.302;2022-09-27T11:22:21;12.50;99.90
59847;DHT22;45728;48.788;2.302;2022-09-27T11:25:12;12.40;99.90
59847;DHT22;45728;48.788;2.302;2022-09-27T11:30:13;12.50;99.90
59847;DHT22;45728;48.788;2.302;2022-09-27T11:35:18;12.40;99.90
59847;DHT22;45728;48.788;2.302;2022-09-27T11:40:22;12.40;99.90
59847;DHT22;45728;48.788;2.302;2022-09-27T11:43:08;12.40;99.90
59847;DHT22;45728;48.788;2.302;2022-09-27T12:06:01;12.90;99.90
59847;DHT22;45728;48.788;2.302;2022-09-27T12:08:32;13.20;99.90
59847;DHT22;45728;48.788;2.302;2022-09-27T12:11:43;13.50;99.90
59847;DHT22;45728;48.788;2.302;2022-09-27T12:13:56;13.70;99.90
59847;DHT22;45728;48.788;2.302;2022-09-27T12:16:22;13.80;99.90
59847;DHT22;45728;48.788;2.302;2022-09-27T12:18:48;13.90;99.90
59847;DHT22;45728;48.788;2.302;2022-09-27T12:21:15;13.90;99.90
59847;DHT22;45728;48.788;2.302;2022-09-27T12:23:43;14.00;99.90
59847;DHT22;45728;48.788;2.302;2022-09-27T12:26:14;14.20;99.90
59847;DHT22;45728;48.788;2.302;2022-09-27T12:33:52;14.30;99.90
59847;DHT22;45728;48.788;2.302;2022-09-27T12:36:23;14.40;99.90
59847;DHT22;45728;48.788;2.302;2022-09-27T12:41:22;14.40;99.90
59847;DHT22;45728;48.788;2.302;2022-09-27T12:43:49;14.40;99.90
59847;DHT22;45728;48.788;2.302;2022-09-27T12:48:46;14.10;99.90
59847;DHT22;45728;48.788;2.302;2022-09-27T12:51:18;14.20;99.90
59847;DHT22;45728;48.788;2.302;2022-09-27T12:59:01;14.30;99.90
59847;DHT22;45728;48.788;2.302;2022-09-27T13:14:29;14.70;99.90
59847;DHT22;45728;48.788;2.302;2022-09-27T13:16:56;14.80;99.90
59847;DHT22;45728;48.788;2.302;2022-09-27T13:22:00;14.70;99.90
59847;DHT22;45728;48.788;2.302;2022-09-27T13:24:38;14.50;99.90
59847;DHT22;45728;48.788;2.302;2022-09-27T13:29:49;14.60;99.90
59847;DHT22;45728;48.788;2.302;2022-09-27T13:34:45;14.40;99.90
59847;DHT22;45728;48.788;2.302;2022-09-27T13:47:46;14.60;99.90
59847;DHT22;45728;48.788;2.302;2022-09-27T13:50:25;14.60;99.90
59847;DHT22;45728;48.788;2.302;2022-09-27T14:00:47;14.60;99.90
59847;DHT22;45728;48.788;2.302;2022-09-27T14:03:14;14.50;99.90
59847;DHT22;45728;48.788;2.302;2022-09-27T14:10:45;14.60;99.90
59847;DHT22;45728;48.788;2.302;2022-09-27T14:13:12;14.40;99.90
59847;DHT22;45728;48.788;2.302;2022-09-27T14:15:41;14.30;99.90
59847;DHT22;45728;48.788;2.302;2022-09-27T14:18:09;14.40;99.90
59847;DHT22;45728;48.788;2.302;2022-09-27T14:20:37;14.50;99.90
59847;DHT22;45728;48.788;2.302;2022-09-27T14:23:05;14.60;99.90
59847;DHT22;45728;48.788;2.302;2022-09-27T14:25:31;14.60;99.90
59847;DHT22;45728;48.788;2.302;2022-09-27T14:27:57;14.70;99.90
59847;DHT22;45728;48.788;2.302;2022-09-27T14:30:26;14.60;99.90
59847;DHT22;45728;48.788;2.302;2022-09-27T14:32:55;14.70;99.90
59847;DHT22;45728;48.788;2.302;2022-09-27T14:35:25;14.60;99.90
59847;DHT22;45728;48.788;2.302;2022-09-27T14:38:14;14.40;99.90
59847;DHT22;45728;48.788;2.302;2022-09-27T14:43:12;14.40;99.90
59847;DHT22;45728;48.788;2.302;2022-09-27T14:45:39;14.40;99.90
59847;DHT22;45728;48.788;2.302;2022-09-27T14:48:16;14.30;99.90
59847;DHT22;45728;48.788;2.302;2022-09-27T14:50:51;14.50;99.90
59847;DHT22;45728;48.788;2.302;2022-09-27T14:53:23;14.40;99.90
59847;DHT22;45728;48.788;2.302;2022-09-27T14:55:50;14.50;99.90
59847;DHT22;45728;48.788;2.302;2022-09-27T14:58:19;14.60;99.90
59847;DHT22;45728;48.788;2.302;2022-09-27T15:00:45;14.50;99.90
59847;DHT22;45728;48.788;2.302;2022-09-27T15:03:15;14.50;99.90
59847;DHT22;45728;48.788;2.302;2022-09-27T15:05:44;14.60;99.90
59847;DHT22;45728;48.788;2.302;2022-09-27T15:08:10;14.60;99.90
59847;DHT22;45728;48.788;2.302;2022-09-27T15:10:39;14.80;99.90
59847;DHT22;45728;48.788;2.302;2022-09-27T15:13:06;14.90;99.90
59847;DHT22;45728;48.788;2.302;2022-09-27T15:15:35;15.00;99.90
59847;DHT22;45728;48.788;2.302;2022-09-27T15:18:27;15.10;99.90
59847;DHT22;45728;48.788;2.302;2022-09-27T15:20:52;15.00;99.90
59847;DHT22;45728;48.788;2.302;2022-09-27T15:23:25;15.20;99.90
59847;DHT22;45728;48.788;2.302;2022-09-27T15:28:23;15.20;99.90
59847;DHT22;45728;48.788;2.302;2022-09-27T15:30:56;15.20;99.90
59847;DHT22;45728;48.788;2.302;2022-09-27T15:33:26;15.10;99.90
59847;DHT22;45728;48.788;2.302;2022-09-27T15:35:53;15.10;99.90
59847;DHT22;45728;48.788;2.302;2022-09-27T15:43:26;15.30;99.90
59847;DHT22;45728;48.788;2.302;2022-09-27T15:45:56;15.20;99.90
59847;DHT22;45728;48.788;2.302;2022-09-27T15:48:22;15.30;99.90
59847;DHT22;45728;48.788;2.302;2022-09-27T15:50:48;15.20;99.90
59847;DHT22;45728;48.788;2.302;2022-09-27T15:55:59;15.20;99.90
59847;DHT22;45728;48.788;2.302;2022-09-27T15:58:25;15.20;99.90
59847;DHT22;45728;48.788;2.302;2022-09-27T16:00:52;15.20;99.90
59847;DHT22;45728;48.788;2.302;2022-09-27T16:03:19;15.20;99.90
59847;DHT22;45728;48.788;2.302;2022-09-27T16:05:44;15.20;99.90
59847;DHT22;45728;48.788;2.302;2022-09-27T16:08:10;15.20;99.90
59847;DHT22;45728;48.788;2.302;2022-09-27T16:10:37;15.10;99.90
59847;DHT22;45728;48.788;2.302;2022-09-27T16:13:04;15.10;99.90
59847;DHT22;45728;48.788;2.302;2022-09-27T16:15:30;15.10;99.90
59847;DHT22;45728;48.788;2.302;2022-09-27T16:17:55;15.00;99.90
59847;DHT22;45728;48.788;2.302;2022-09-27T16:20:24;15.00;99.90
59847;DHT22;45728;48.788;2.302;2022-09-27T16:22:51;15.00;99.90
59847;DHT22;45728;48.788;2.302;2022-09-27T16:25:17;15.00;99.90
59847;DHT22;45728;48.788;2.302;2022-09-27T16:27:43;15.10;99.90
59847;DHT22;45728;48.788;2.302;2022-09-27T16:30:10;14.90;99.90
59847;DHT22;45728;48.788;2.302;2022-09-27T16:32:40;14.90;99.90
59847;DHT22;45728;48.788;2.302;2022-09-27T16:35:06;14.80;99.90
59847;DHT22;45728;48.788;2.302;2022-09-27T16:37:32;14.90;99.90
59847;DHT22;45728;48.788;2.302;2022-09-27T16:39:58;14.80;99.90
59847;DHT22;45728;48.788;2.302;2022-09-27T16:42:24;14.80;99.90
59847;DHT22;45728;48.788;2.302;2022-09-27T16:44:51;14.70;99.90
59847;DHT22;45728;48.788;2.302;2022-09-27T16:47:18;14.70;99.90
59847;DHT22;45728;48.788;2.302;2022-09-27T16:49:44;14.70;99.90
59847;DHT22;45728;48.788;2.302;2022-09-27T16:52:29;14.70;99.90
59847;DHT22;45728;48.788;2.302;2022-09-27T16:54:58;14.70;99.90
59847;DHT22;45728;48.788;2.302;2022-09-27T16:57:25;14.60;99.90
59847;DHT22;45728;48.788;2.302;2022-09-27T16:59:53;14.60;99.90
59847;DHT22;45728;48.788;2.302;2022-09-27T17:02:21;14.60;99.90
59847;DHT22;45728;48.788;2.302;2022-09-27T17:04:47;14.60;99.90
59847;DHT22;45728;48.788;2.302;2022-09-27T17:07:13;14.60;99.90
59847;DHT22;45728;48.788;2.302;2022-09-27T17:09:38;14.50;99.90
59847;DHT22;45728;48.788;2.302;2022-09-27T17:12:05;14.50;99.90
59847;DHT22;45728;48.788;2.302;2022-09-27T17:14:30;14.40;99.90
59847;DHT22;45728;48.788;2.302;2022-09-27T17:16:57;14.40;99.90
59847;DHT22;45728;48.788;2.302;2022-09-27T17:19:23;14.40;99.90
59847;DHT22;45728;48.788;2.302;2022-09-27T17:21:49;14.50;99.90
59847;DHT22;45728;48.788;2.302;2022-09-27T17:24:15;14.40;99.90
59847;DHT22;45728;48.788;2.302;2022-09-27T17:26:41;14.30;99.90
59847;DHT22;45728;48.788;2.302;2022-09-27T17:29:10;14.30;99.90
59847;DHT22;45728;48.788;2.302;2022-09-27T17:31:37;14.30;99.90
59847;DHT22;45728;48.788;2.302;2022-09-27T17:34:05;14.20;99.90
59847;DHT22;45728;48.788;2.302;2022-09-27T17:36:32;14.20;99.90
59847;DHT22;45728;48.788;2.302;2022-09-27T17:38:59;14.20;99.90
59847;DHT22;45728;48.788;2.302;2022-09-27T17:41:25;14.20;99.90
59847;DHT22;45728;48.788;2.302;2022-09-27T17:43:52;14.20;99.90
59847;DHT22;45728;48.788;2.302;2022-09-27T17:46:20;14.20;99.90
59847;DHT22;45728;48.788;2.302;2022-09-27T17:48:46;14.10;99.90
59847;DHT22;45728;48.788;2.302;2022-09-27T17:51:31;14.20;99.90
59847;DHT22;45728;48.788;2.302;2022-09-27T17:53:58;14.20;99.90
59847;DHT22;45728;48.788;2.302;2022-09-27T17:56:24;14.20;99.90
59847;DHT22;45728;48.788;2.302;2022-09-27T17:58:51;14.10;99.90
59847;DHT22;45728;48.788;2.302;2022-09-27T18:01:17;14.10;99.90
59847;DHT22;45728;48.788;2.302;2022-09-27T18:03:44;14.10;99.90
59847;DHT22;45728;48.788;2.302;2022-09-27T18:06:11;14.10;99.90
59847;DHT22;45728;48.788;2.302;2022-09-27T18:08:37;14.10;99.90
59847;DHT22;45728;48.788;2.302;2022-09-27T18:11:04;14.10;99.90
59847;DHT22;45728;48.788;2.302;2022-09-27T18:13:30;14.00;99.90
59847;DHT22;45728;48.788;2.302;2022-09-27T18:16:02;14.00;99.90
59847;DHT22;45728;48.788;2.302;2022-09-27T18:18:30;14.00;99.90
59847;DHT22;45728;48.788;2.302;2022-09-27T18:20:59;14.00;99.90
59847;DHT22;45728;48.788;2.302;2022-09-27T18:23:27;14.00;99.90
59847;DHT22;45728;48.788;2.302;2022-09-27T18:25:53;14.00;99.90
59847;DHT22;45728;48.788;2.302;2022-09-27T18:28:24;14.00;99.90
59847;DHT22;45728;48.788;2.302;2022-09-27T18:30:50;14.00;99.90
59847;DHT22;45728;48.788;2.302;2022-09-27T18:33:15;14.00;99.90
59847;DHT22;45728;48.788;2.302;2022-09-27T18:35:41;14.00;99.90
59847;DHT22;45728;48.788;2.302;2022-09-27T18:38:07;14.00;99.90
59847;DHT22;45728;48.788;2.302;2022-09-27T18:40:33;14.00;99.90
59847;DHT22;45728;48.788;2.302;2022-09-27T18:42:59;14.00;99.90